Архив погоды в Барабинске

Метеограмма Барабинск
Вторник, 23 Мая
Время местн. Темп Ветер Видим Явления Облачность нижн/средн/верх Атм. давл. Влжн Точка росы ВНГО R Сост. почвы Tg s
Напр Скр Прв ур.ст ур.м изм
07:00 +19.4° Ю 3 - 20 км - переменная облачность 742 753 -0.9 31% +1.7° более 2.5 км 0 Сухая (без трещин) - -
04:00 +20.1° Ю 4 11 20 км - переменная облачность 743 753 -0.5 27% +0.4° более 2.5 км - - - -
01:00 +22° Ю 6 11 20 км - переменная облачность 743 754 -0.3 27% +2.1° - - - - -
Понедельник, 22 Мая
Время местн. Темп Ветер Видим Явления Облачность нижн/средн/верх Атм. давл. Влжн Точка росы ВНГО R Сост. почвы Tg s
Напр Скр Прв ур.ст ур.м изм
22:00 +23.1° Ю 4 - 20 км - облачно с прояснениями 744 754 0 26% +2.5° 1 км - - - -
19:00 +26.6° Ю,Ю-З 6 16 20 км - переменная облачность 744 754 -0.9 20% +1.6° 1 км 0 - - -
16:00 +27.1° Ю,Ю-З 7 14 20 км - переменная облачность 745 755 -1.1 19% +1.5° - - - - -
13:00 +22.8° Ю 5 10 20 км - преимущественно облачно 746 756 -1.1 29% +3.8° - - - - -
10:00 +19.1° Ю 4 - 20 км - преимущественно облачно 747 757 -0.7 37% +4.1° более 2.5 км - - - -
07:00 +16.2° Ю,Ю-З 4 - 20 км - преимущественно облачно 747 758 -0.1 46% +4.5° 1 км 0 Сухая (без трещин) - -
04:00 +17.5° Ю,Ю-З 5 - 20 км - преимущественно облачно 748 758 -0.5 39% +3.5° - - - - -
01:00 +17.1° Ю 3 - 20 км - переменная облачность 748 759 -0.1 40% +3.4° более 2.5 км - - - -
Воскресенье, 21 Мая
Время местн. Темп Ветер Видим Явления Облачность нижн/средн/верх Атм. давл. Влжн Точка росы ВНГО R Сост. почвы Tg s
Напр Скр Прв ур.ст ур.м изм
22:00 +19.9° Ю 3 - 20 км - преимущественно облачно 748 759 -0.5 34% +3.4° - - - - -
19:00 +24.3° Ю 5 10 20 км - облачно с прояснениями 749 759 -1.4 22% +1.3° более 2.5 км 0 - - -
16:00 +22° Ю 5 - 20 км - переменная облачность 750 760 -1.4 34% +5.6° более 2.5 км - - - -
13:00 +17.8° Ю 4 - 20 км - переменная облачность 751 762 -0.5 48% +6.6° более 2.5 км - - - -
10:00 +11.8° Ю-В 3 - 20 км - переменная облачность 752 763 +0.1 74% +7.3° более 2.5 км - - - -
07:00 +8.2° В 3 - 20 км - облачно 752 763 +0.9 91% +6.9° 600 м 0.1 Влажная (без луж) - -
04:00 +7.8° С-В 1 - 20 км - ясно 751 762 -0.1 89% +6.1° более 2.5 км - - - -
01:00 +10.2° Ю,Ю-В 1 - 10 км слабый ливневый дождь облачно 751 762 +0.9 84% +7.7° 1 км - - - -
Суббота, 20 Мая
Время местн. Темп Ветер Видим Явления Облачность нижн/средн/верх Атм. давл. Влжн Точка росы ВНГО R Сост. почвы Tg s
Напр Скр Прв ур.ст ур.м изм
22:00 +14.1° С 4 - 20 км - преимущественно облачно 750 761 +0.2 61% +6.6° 600 м - - - -
19:00 +19.9° Ю-З 6 10 20 км - преимущественно облачно 750 761 -0.8 26% -0.4° 1 км 0 - - -
16:00 +19.9° З 7 17 20 км - преимущественно облачно 751 761 -0.8 25% -0.6° 1 км - - - -
13:00 +19.1° Ю-З 5 - 20 км - преимущественно облачно 752 762 -1.1 31% +1.7° 600 м - - - -
10:00 +16.5° Ю,Ю-З 5 11 20 км - преимущественно облачно 753 763 -1.2 50% +6° 1 км - - - -
07:00 +12.9° Ю-З 4 - 20 км - преимущественно облачно 754 765 -0.6 57% +4.7° 600 м 0 Влажная (без луж) +8° -
04:00 +10.1° Ю,Ю-В 2 - 20 км - переменная облачность 754 765 -0.8 52% +0.8° - - - - -